createdAt,value
2022-12-03T00:02:00.219Z,18.07
2022-12-03T00:04:32.142Z,20.13
2022-12-03T00:07:04.495Z,17.83
2022-12-03T00:09:36.475Z,17.90
2022-12-03T00:12:08.507Z,18.77
2022-12-03T00:14:44.594Z,17.63
2022-12-03T00:17:18.524Z,18.57
2022-12-03T00:19:50.464Z,18.87
2022-12-03T00:22:22.520Z,18.17
2022-12-03T00:24:54.777Z,19.23
2022-12-03T00:27:26.882Z,18.10
2022-12-03T00:29:58.863Z,18.47
2022-12-03T00:32:30.850Z,19.90
2022-12-03T00:35:03.443Z,18.43
2022-12-03T00:37:35.490Z,17.47
2022-12-03T00:40:08.996Z,18.17
2022-12-03T00:42:40.936Z,20.47
2022-12-03T00:45:14.917Z,21.00
2022-12-03T00:47:46.825Z,17.47
2022-12-03T00:50:18.835Z,18.90
2022-12-03T00:52:50.829Z,19.30
2022-12-03T00:55:22.769Z,19.23
2022-12-03T00:57:54.853Z,19.47
2022-12-03T01:00:26.839Z,19.47
2022-12-03T01:02:59.040Z,19.03
2022-12-03T01:05:33.941Z,19.47
2022-12-03T01:08:06.199Z,19.80
2022-12-03T01:10:38.319Z,20.60
2022-12-03T01:13:10.733Z,22.27
2022-12-03T01:15:42.816Z,20.40
2022-12-03T01:18:21.666Z,21.10
2022-12-03T01:20:53.608Z,19.33
2022-12-03T01:23:25.547Z,21.30
2022-12-03T01:25:57.499Z,20.67
2022-12-03T01:28:29.497Z,21.07
2022-12-03T01:31:20.515Z,22.47
2022-12-03T01:33:52.569Z,20.83
2022-12-03T01:36:24.627Z,20.83
2022-12-03T01:38:56.595Z,21.23
2022-12-03T01:41:29.452Z,20.63
2022-12-03T01:44:04.644Z,22.23
2022-12-03T01:46:41.962Z,20.80
2022-12-03T01:49:27.543Z,23.63
2022-12-03T01:52:00.323Z,21.30
2022-12-03T01:54:41.877Z,23.57
2022-12-03T01:57:27.890Z,22.17
2022-12-03T02:00:02.732Z,21.27
2022-12-03T02:02:35.643Z,20.13
2022-12-03T02:05:20.185Z,23.97
2022-12-03T02:07:52.677Z,23.00
2022-12-03T02:10:35.791Z,22.87
2022-12-03T02:13:10.437Z,20.93
2022-12-03T02:15:42.423Z,23.07
2022-12-03T02:18:14.500Z,21.70
2022-12-03T02:21:32.759Z,22.40
2022-12-03T02:24:36.976Z,22.23
2022-12-03T02:27:09.028Z,22.37
2022-12-03T02:29:41.172Z,21.70
2022-12-03T02:32:13.263Z,23.50
2022-12-03T02:34:46.614Z,22.17
2022-12-03T02:37:33.873Z,23.30
2022-12-03T02:40:12.655Z,23.03
2022-12-03T02:42:46.780Z,22.53
2022-12-03T02:45:25.603Z,22.90
2022-12-03T02:48:04.982Z,22.70
2022-12-03T02:50:41.536Z,26.27
2022-12-03T02:53:28.661Z,25.33
2022-12-03T02:56:03.412Z,22.43
2022-12-03T02:58:35.870Z,24.53
2022-12-03T03:01:09.647Z,24.10
2022-12-03T03:03:42.007Z,23.57
2022-12-03T03:06:16.035Z,24.47
2022-12-03T03:08:49.024Z,24.40
2022-12-03T03:11:21.133Z,23.03
2022-12-03T03:13:53.210Z,25.07
2022-12-03T03:16:25.215Z,23.37
2022-12-03T03:18:57.237Z,24.30
2022-12-03T03:21:29.188Z,25.03
2022-12-03T03:24:01.193Z,23.50
2022-12-03T03:26:33.170Z,23.80
2022-12-03T03:29:05.529Z,22.30
2022-12-03T03:31:38.715Z,24.07
2022-12-03T03:34:11.407Z,25.67
2022-12-03T03:36:44.919Z,23.90
2022-12-03T03:39:17.004Z,25.27
2022-12-03T03:41:49.119Z,25.10
2022-12-03T03:44:21.218Z,27.13
2022-12-03T03:46:53.190Z,25.97
2022-12-03T03:49:27.150Z,26.23
2022-12-03T03:51:59.570Z,27.10
2022-12-03T03:54:31.921Z,24.33
2022-12-03T03:57:04.516Z,24.73
2022-12-03T03:59:36.930Z,26.83
2022-12-03T04:02:21.876Z,25.47
2022-12-03T04:04:54.495Z,26.77
2022-12-03T04:07:27.058Z,22.87
2022-12-03T04:10:21.829Z,23.47
2022-12-03T04:12:56.421Z,24.37
2022-12-03T04:15:29.078Z,24.87
2022-12-03T04:18:19.649Z,24.87
2022-12-03T04:20:51.600Z,24.23
2022-12-03T04:23:29.299Z,25.37
2022-12-03T04:26:21.733Z,24.13
2022-12-03T04:28:54.116Z,25.87
2022-12-03T04:31:44.791Z,24.90
2022-12-03T04:34:34.983Z,26.20
2022-12-03T04:37:07.049Z,24.63
2022-12-03T04:39:39.038Z,26.80
2022-12-03T04:42:11.001Z,26.50
2022-12-03T04:44:43.087Z,25.67
2022-12-03T04:47:18.648Z,24.83
2022-12-03T04:49:51.952Z,24.70
2022-12-03T04:52:23.892Z,25.90
2022-12-03T04:54:56.238Z,25.17
2022-12-03T04:57:28.334Z,26.77
2022-12-03T05:00:00.293Z,26.80
2022-12-03T05:02:32.276Z,25.80
2022-12-03T05:05:04.648Z,25.27
2022-12-03T05:07:37.283Z,25.70
2022-12-03T05:10:10.457Z,27.90
2022-12-03T05:12:42.367Z,25.33
2022-12-03T05:15:14.260Z,27.50
2022-12-03T05:17:46.224Z,24.37
2022-12-03T05:20:36.937Z,27.53
2022-12-03T05:23:11.103Z,26.30
2022-12-03T05:25:43.116Z,27.10
2022-12-03T05:28:15.079Z,27.63
2022-12-03T05:30:49.411Z,27.33
2022-12-03T05:33:21.492Z,26.80
2022-12-03T05:35:53.420Z,26.63
2022-12-03T05:38:25.384Z,27.43
2022-12-03T05:40:57.428Z,26.47
2022-12-03T05:43:29.400Z,28.73
2022-12-03T05:46:01.495Z,26.80
2022-12-03T05:48:33.471Z,29.17
2022-12-03T05:51:05.397Z,29.53
2022-12-03T05:53:37.359Z,27.83
2022-12-03T05:56:09.353Z,27.70
2022-12-03T05:58:41.321Z,26.43
2022-12-03T06:01:13.342Z,29.43
2022-12-03T06:03:45.403Z,28.57
2022-12-03T06:06:17.426Z,26.73
2022-12-03T06:08:49.365Z,27.27
2022-12-03T06:11:21.379Z,26.93
2022-12-03T06:13:53.298Z,27.30
2022-12-03T06:16:25.488Z,28.43
2022-12-03T06:18:57.968Z,27.07
2022-12-03T06:21:29.882Z,29.33
2022-12-03T06:24:01.833Z,27.03
2022-12-03T06:26:33.705Z,26.67
2022-12-03T06:29:05.641Z,26.93
2022-12-03T06:31:37.613Z,26.73
2022-12-03T06:34:12.436Z,29.00
2022-12-03T06:36:44.379Z,29.23
2022-12-03T06:39:17.565Z,25.63
2022-12-03T06:41:49.557Z,28.67
2022-12-03T06:44:21.577Z,27.77
2022-12-03T06:46:53.560Z,25.20
2022-12-03T06:49:25.603Z,27.23
2022-12-03T06:51:57.540Z,27.57
2022-12-03T06:54:29.528Z,27.27
2022-12-03T06:57:01.551Z,27.37
2022-12-03T06:59:35.808Z,27.10
2022-12-03T07:02:07.872Z,26.57
2022-12-03T07:04:52.526Z,28.00
2022-12-03T07:07:24.577Z,27.27
2022-12-03T07:09:56.586Z,29.53
2022-12-03T07:12:28.551Z,27.27
2022-12-03T07:15:00.529Z,26.93
2022-12-03T07:17:32.451Z,27.40
2022-12-03T07:20:05.437Z,27.00
2022-12-03T07:22:37.359Z,27.90
2022-12-03T07:25:09.914Z,26.80
2022-12-03T07:27:41.830Z,26.30
2022-12-03T07:30:15.958Z,26.43
2022-12-03T07:32:48.039Z,26.77
2022-12-03T07:35:20.192Z,28.67
2022-12-03T07:37:52.102Z,27.97
2022-12-03T07:40:24.035Z,26.27
2022-12-03T07:42:55.972Z,28.57
2022-12-03T07:45:27.929Z,26.97
2022-12-03T07:47:59.879Z,26.93
2022-12-03T07:50:31.767Z,29.83
2022-12-03T07:53:03.701Z,27.33
2022-12-03T07:55:35.738Z,28.23
2022-12-03T07:58:09.078Z,26.70
2022-12-03T08:00:40.993Z,27.67
2022-12-03T08:03:12.978Z,27.17
2022-12-03T08:05:44.922Z,26.63
2022-12-03T08:08:16.919Z,26.20
2022-12-03T08:10:49.029Z,26.20
2022-12-03T08:13:20.959Z,27.67
2022-12-03T08:15:53.092Z,27.17
2022-12-03T08:18:25.106Z,26.87
2022-12-03T08:20:57.034Z,26.63
2022-12-03T08:23:29.019Z,27.33
2022-12-03T08:26:02.250Z,26.97
2022-12-03T08:28:34.164Z,26.07
2022-12-03T08:31:20.037Z,27.20
2022-12-03T08:33:55.526Z,24.80
2022-12-03T08:36:32.880Z,27.20
2022-12-03T08:39:43.711Z,25.97
2022-12-03T08:42:43.350Z,24.90
2022-12-03T08:45:32.128Z,24.67
2022-12-03T08:48:19.222Z,23.87
2022-12-03T08:50:51.726Z,23.00
2022-12-03T08:53:46.456Z,23.23
2022-12-03T08:56:27.808Z,26.27
2022-12-03T08:59:12.754Z,23.20
2022-12-03T09:01:47.143Z,24.87
2022-12-03T09:04:47.417Z,24.10
2022-12-03T09:07:19.346Z,26.70
2022-12-03T09:09:51.331Z,23.23
2022-12-03T09:12:23.238Z,27.30
2022-12-03T09:14:55.482Z,25.37
2022-12-03T09:17:27.775Z,24.40
2022-12-03T09:19:59.712Z,23.83
2022-12-03T09:22:31.769Z,23.37
2022-12-03T09:25:04.139Z,24.50
2022-12-03T09:27:36.287Z,21.80
2022-12-03T09:30:09.068Z,23.97
2022-12-03T09:32:41.073Z,24.67
2022-12-03T09:35:13.376Z,22.83
2022-12-03T09:37:45.375Z,23.03
2022-12-03T09:40:17.909Z,23.47
2022-12-03T09:42:52.237Z,24.80
2022-12-03T09:45:24.301Z,23.40
2022-12-03T09:47:56.412Z,24.07
2022-12-03T09:50:28.556Z,22.80
2022-12-03T09:53:03.886Z,22.17
2022-12-03T09:55:36.048Z,22.63
2022-12-03T09:58:14.217Z,24.03
2022-12-03T10:00:52.337Z,24.63
2022-12-03T10:03:30.431Z,22.30
2022-12-03T10:06:02.440Z,21.70
2022-12-03T10:08:34.512Z,24.00
2022-12-03T10:11:06.548Z,23.77
2022-12-03T10:13:38.691Z,20.30
2022-12-03T10:16:15.488Z,21.90
2022-12-03T10:18:56.707Z,21.73
2022-12-03T10:21:39.012Z,21.00
2022-12-03T10:24:17.097Z,20.37
2022-12-03T10:26:52.064Z,19.27
2022-12-03T10:29:34.732Z,20.17
2022-12-03T10:32:11.775Z,21.30
2022-12-03T10:34:44.832Z,21.60
2022-12-03T10:37:21.430Z,20.73
2022-12-03T10:40:00.612Z,19.77
2022-12-03T10:42:36.950Z,21.03
2022-12-03T10:45:18.120Z,21.37
2022-12-03T10:48:21.720Z,19.20
2022-12-03T10:51:10.310Z,19.77
2022-12-03T10:53:42.494Z,20.07
2022-12-03T10:56:24.107Z,19.47
2022-12-03T10:58:56.531Z,20.60
2022-12-03T11:01:28.641Z,19.53
2022-12-03T11:04:05.323Z,21.20
2022-12-03T11:06:37.347Z,19.27
2022-12-03T11:09:22.044Z,20.57
2022-12-03T11:11:57.528Z,20.73
2022-12-03T11:14:51.758Z,20.77
2022-12-03T11:17:44.276Z,21.17
2022-12-03T11:20:25.384Z,21.80
2022-12-03T11:22:59.270Z,20.50
2022-12-03T11:25:46.603Z,21.43
2022-12-03T11:28:18.476Z,20.50
2022-12-03T11:30:56.820Z,22.73
2022-12-03T11:33:41.370Z,22.20
2022-12-03T11:36:15.496Z,22.63
2022-12-03T11:38:53.519Z,23.33
2022-12-03T11:41:34.293Z,22.03
2022-12-03T11:44:31.430Z,21.73
2022-12-03T11:47:15.654Z,22.00
2022-12-03T11:49:48.958Z,22.40
2022-12-03T11:52:33.339Z,22.07
2022-12-03T11:55:15.073Z,23.67
2022-12-03T11:57:47.303Z,22.60
2022-12-03T12:00:24.445Z,21.47
2022-12-03T12:02:59.083Z,23.57
2022-12-03T12:05:33.823Z,24.17
2022-12-03T12:08:05.833Z,20.80
2022-12-03T12:10:47.207Z,21.57
2022-12-03T12:13:25.361Z,22.80
2022-12-03T12:16:02.136Z,22.67
2022-12-03T12:18:42.848Z,23.30
2022-12-03T12:21:42.697Z,22.97
2022-12-03T12:24:57.694Z,21.73
2022-12-03T12:27:49.397Z,20.43
2022-12-03T12:30:23.257Z,21.30
2022-12-03T12:33:10.768Z,21.53
2022-12-03T12:35:42.830Z,22.17
2022-12-03T12:38:19.240Z,20.93
2022-12-03T12:40:51.251Z,21.00
2022-12-03T12:43:29.562Z,24.17
2022-12-03T12:46:46.153Z,23.00
2022-12-03T12:49:12.430Z,22.03
2022-12-03T12:51:46.464Z,23.03
2022-12-03T12:54:19.029Z,24.00
2022-12-03T12:56:51.172Z,26.97
2022-12-03T12:59:24.487Z,25.53
2022-12-03T13:01:56.530Z,25.27
2022-12-03T13:04:30.836Z,25.07
2022-12-03T13:07:02.805Z,25.97
2022-12-03T13:09:34.705Z,23.23
2022-12-03T13:12:21.209Z,23.73
2022-12-03T13:14:59.299Z,27.23
2022-12-03T13:17:31.233Z,25.80
2022-12-03T13:20:17.228Z,24.63
2022-12-03T13:22:49.161Z,27.27
2022-12-03T13:28:30.458Z,24.93
2022-12-03T13:31:41.873Z,25.37
2022-12-03T13:34:28.572Z,27.00
2022-12-03T13:37:02.807Z,27.40
2022-12-03T13:39:46.472Z,25.73
2022-12-03T13:42:42.282Z,26.30
2022-12-03T13:45:14.206Z,29.50
2022-12-03T13:47:50.314Z,26.87
2022-12-03T13:50:28.902Z,29.27
2022-12-03T13:53:05.889Z,27.70
2022-12-03T13:55:47.098Z,27.10
2022-12-03T13:58:19.225Z,28.77
2022-12-03T14:00:51.179Z,29.70
2022-12-03T14:03:23.485Z,27.70
2022-12-03T14:05:55.355Z,25.40
2022-12-03T14:08:27.294Z,25.77
2022-12-03T14:11:00.944Z,26.63
2022-12-03T14:13:33.954Z,27.80
2022-12-03T14:16:06.126Z,28.33
2022-12-03T14:18:38.128Z,29.33
2022-12-03T14:21:10.105Z,30.30
2022-12-03T14:23:42.081Z,28.90
2022-12-03T14:26:14.168Z,28.47
2022-12-03T14:28:46.126Z,29.83
2022-12-03T14:31:18.049Z,28.60
2022-12-03T14:33:50.125Z,28.77
2022-12-03T14:36:22.091Z,27.97
2022-12-03T14:38:54.031Z,27.13
2022-12-03T14:41:44.336Z,26.73
2022-12-03T14:44:16.316Z,27.10
2022-12-03T14:46:50.639Z,28.97
2022-12-03T14:49:26.097Z,27.73
2022-12-03T14:51:58.162Z,27.70
2022-12-03T14:54:30.403Z,27.90
2022-12-03T14:57:02.684Z,29.33
2022-12-03T14:59:34.660Z,30.20
2022-12-03T15:02:07.386Z,29.97
2022-12-03T15:04:41.222Z,31.07
2022-12-03T15:07:13.360Z,30.70
2022-12-03T15:09:45.282Z,29.40
2022-12-03T15:12:17.317Z,32.13
2022-12-03T15:14:49.430Z,29.90
2022-12-03T15:17:29.559Z,26.13
2022-12-03T15:20:04.188Z,30.43
2022-12-03T15:22:36.102Z,30.77
2022-12-03T15:25:08.869Z,27.60
2022-12-03T15:27:41.610Z,34.25
2022-12-03T15:30:13.839Z,30.53
2022-12-03T15:32:45.880Z,30.57
2022-12-03T15:35:18.727Z,30.30
2022-12-03T15:37:50.623Z,31.50
2022-12-03T15:40:22.566Z,31.50
2022-12-03T15:42:54.630Z,34.42
2022-12-03T15:45:26.732Z,32.23
2022-12-03T15:47:58.712Z,30.90
2022-12-03T15:50:33.539Z,32.10
2022-12-03T15:53:07.782Z,36.17
2022-12-03T15:55:39.743Z,32.17
2022-12-03T15:58:11.763Z,36.97
2022-12-03T16:00:43.705Z,34.10
2022-12-03T16:03:15.924Z,31.30
2022-12-03T16:05:47.882Z,29.60
2022-12-03T16:08:19.946Z,30.50
2022-12-03T16:10:51.977Z,31.27
2022-12-03T16:13:23.958Z,29.83
2022-12-03T16:15:55.950Z,31.60
2022-12-03T16:18:27.988Z,29.10
2022-12-03T16:20:59.916Z,30.13
2022-12-03T16:23:31.828Z,31.90
2022-12-03T16:26:03.824Z,31.23
2022-12-03T16:28:35.753Z,30.90
2022-12-03T16:31:07.775Z,28.57
2022-12-03T16:33:39.865Z,30.03
2022-12-03T16:36:11.783Z,29.03
2022-12-03T16:38:43.728Z,30.90
2022-12-03T16:41:15.693Z,32.17
2022-12-03T16:43:48.605Z,30.20
2022-12-03T16:46:21.156Z,31.40
2022-12-03T16:48:56.510Z,31.53
2022-12-03T16:51:30.301Z,31.60
2022-12-03T16:54:02.412Z,34.73
2022-12-03T16:56:34.355Z,34.17
2022-12-03T16:59:06.324Z,30.07
2022-12-03T17:01:38.392Z,31.97
2022-12-03T17:04:10.469Z,31.43
2022-12-03T17:06:42.445Z,35.07
2022-12-03T17:09:14.936Z,33.33
2022-12-03T17:11:46.907Z,35.97
2022-12-03T17:14:19.018Z,31.73
2022-12-03T17:16:50.935Z,34.30
2022-12-03T17:19:22.865Z,36.97
2022-12-03T17:21:54.770Z,35.37
2022-12-03T17:24:26.714Z,33.30
2022-12-03T17:26:58.654Z,36.07
2022-12-03T17:29:30.593Z,36.67
2022-12-03T17:32:02.898Z,37.57
2022-12-03T17:34:35.036Z,32.97
2022-12-03T17:37:06.939Z,37.30
2022-12-03T17:39:38.946Z,34.53
2022-12-03T17:42:10.944Z,37.53
2022-12-03T17:44:42.924Z,37.90
2022-12-03T17:47:15.184Z,36.77
2022-12-03T17:49:47.175Z,34.87
2022-12-03T17:52:19.169Z,36.20
2022-12-03T17:57:42.984Z,37.60
2022-12-03T18:00:15.281Z,33.13
2022-12-03T18:02:47.227Z,36.10
2022-12-03T18:05:19.338Z,39.40
2022-12-03T18:07:51.827Z,37.00
2022-12-03T18:10:23.846Z,39.70
2022-12-03T18:13:01.240Z,40.37
2022-12-03T18:15:33.678Z,35.70
2022-12-03T18:18:05.706Z,38.37
2022-12-03T18:20:38.034Z,36.07
2022-12-03T18:23:10.024Z,39.03
2022-12-03T18:25:42.732Z,36.37
2022-12-03T18:28:14.629Z,37.23
2022-12-03T18:30:52.280Z,35.67
2022-12-03T18:33:27.125Z,38.87
2022-12-03T18:35:59.123Z,37.40
2022-12-03T18:38:33.677Z,37.63
2022-12-03T18:41:05.683Z,39.83
2022-12-03T18:43:37.740Z,36.63
2022-12-03T18:46:45.119Z,38.23
2022-12-03T18:49:06.905Z,37.57
2022-12-03T18:51:39.019Z,45.92
2022-12-03T18:54:14.439Z,41.97
2022-12-03T18:56:46.483Z,39.60
2022-12-03T18:59:18.552Z,38.50
2022-12-03T19:01:50.578Z,37.97
2022-12-03T19:04:22.903Z,37.57
2022-12-03T19:06:55.083Z,38.70
2022-12-03T19:09:28.573Z,39.37
2022-12-03T19:12:00.448Z,36.87
2022-12-03T19:14:35.080Z,39.10
2022-12-03T19:17:09.533Z,42.07
2022-12-03T19:19:41.599Z,46.75
2022-12-03T19:22:13.720Z,41.10
2022-12-03T19:24:45.699Z,38.77
2022-12-03T19:27:17.726Z,36.17
2022-12-03T19:29:49.816Z,38.23
2022-12-03T19:32:21.878Z,39.20
2022-12-03T19:34:53.816Z,37.37
2022-12-03T19:37:25.753Z,37.00
2022-12-03T19:39:57.990Z,37.13
2022-12-03T19:42:31.252Z,38.63
2022-12-03T19:45:03.790Z,39.47
2022-12-03T19:47:37.117Z,36.90
2022-12-03T19:50:10.136Z,37.20
2022-12-03T19:52:42.055Z,35.90
2022-12-03T19:55:16.083Z,40.03
2022-12-03T19:57:48.718Z,39.97
2022-12-03T20:00:20.932Z,41.40
2022-12-03T20:02:52.941Z,40.17
2022-12-03T20:05:27.855Z,39.13
2022-12-03T20:08:05.517Z,38.30
2022-12-03T20:10:37.878Z,40.93
2022-12-03T20:13:09.822Z,40.90
2022-12-03T20:15:41.830Z,44.87
2022-12-03T20:18:13.862Z,40.13
2022-12-03T20:20:45.855Z,43.73
2022-12-03T20:23:17.744Z,43.00
2022-12-03T20:25:49.734Z,43.33
2022-12-03T20:28:21.635Z,41.07
2022-12-03T20:31:13.384Z,45.73
2022-12-03T20:33:49.670Z,39.93
2022-12-03T20:36:22.865Z,41.50
2022-12-03T20:38:57.477Z,42.23
2022-12-03T20:41:30.111Z,41.87
2022-12-03T20:44:03.195Z,44.75
2022-12-03T20:46:36.264Z,45.23
2022-12-03T20:49:08.381Z,45.63
2022-12-03T20:51:42.541Z,44.63
2022-12-03T20:54:14.492Z,45.70
2022-12-03T20:56:46.398Z,45.27
2022-12-03T20:59:18.625Z,42.13
2022-12-03T21:01:50.884Z,41.90
2022-12-03T21:04:22.901Z,42.57
2022-12-03T21:06:54.798Z,44.53
2022-12-03T21:09:26.895Z,43.40
2022-12-03T21:11:58.844Z,44.97
2022-12-03T21:14:31.021Z,41.67
2022-12-03T21:17:10.464Z,44.10
2022-12-03T21:19:42.457Z,42.17
2022-12-03T21:22:15.440Z,42.80
2022-12-03T21:24:47.306Z,43.63
2022-12-03T21:27:21.875Z,46.40
2022-12-03T21:29:54.542Z,42.87
2022-12-03T21:32:26.658Z,40.70
2022-12-03T21:34:58.591Z,44.60
2022-12-03T21:37:30.514Z,41.43
2022-12-03T21:40:02.696Z,44.63
2022-12-03T21:42:37.178Z,42.17
2022-12-03T21:45:10.098Z,47.97
2022-12-03T21:47:42.519Z,42.50
2022-12-03T21:50:14.900Z,48.93
2022-12-03T21:52:46.858Z,43.53
2022-12-03T21:55:18.801Z,44.37
2022-12-03T21:57:50.789Z,47.63
2022-12-03T22:00:22.877Z,44.70
2022-12-03T22:02:54.881Z,45.90
2022-12-03T22:05:26.831Z,42.00
2022-12-03T22:07:58.806Z,44.27
2022-12-03T22:10:30.781Z,46.47
2022-12-03T22:13:02.908Z,44.13
2022-12-03T22:15:37.787Z,43.10
2022-12-03T22:18:09.776Z,45.63
2022-12-03T22:20:44.772Z,43.37
2022-12-03T22:23:16.679Z,45.63
2022-12-03T22:25:58.005Z,44.30
2022-12-03T22:28:29.973Z,44.23
2022-12-03T22:31:10.024Z,44.87
2022-12-03T22:33:43.466Z,41.57
2022-12-03T22:36:21.198Z,44.47
2022-12-03T22:38:53.855Z,44.60
2022-12-03T22:41:25.805Z,43.83
2022-12-03T22:43:57.756Z,46.07
2022-12-03T22:46:29.771Z,42.43
2022-12-03T22:49:06.858Z,42.17
2022-12-03T22:51:39.712Z,42.80
2022-12-03T22:54:12.646Z,42.93
2022-12-03T22:56:44.728Z,44.93
2022-12-03T22:59:16.600Z,44.63
2022-12-03T23:01:48.644Z,44.63
2022-12-03T23:04:20.682Z,43.27
2022-12-03T23:06:52.725Z,42.10
2022-12-03T23:09:24.694Z,43.57
2022-12-03T23:11:56.611Z,44.03
2022-12-03T23:14:28.589Z,41.77
2022-12-03T23:17:00.551Z,42.73
2022-12-03T23:19:32.625Z,43.57
2022-12-03T23:22:04.523Z,39.63
2022-12-03T23:24:36.826Z,41.77
2022-12-03T23:27:08.835Z,41.90
2022-12-03T23:29:40.759Z,42.83
2022-12-03T23:32:12.852Z,41.73
2022-12-03T23:34:44.949Z,39.33
2022-12-03T23:37:16.878Z,41.17
2022-12-03T23:39:49.646Z,39.00
2022-12-03T23:42:21.742Z,43.30
2022-12-03T23:44:53.679Z,41.20
2022-12-03T23:47:25.637Z,39.63
2022-12-03T23:49:57.829Z,42.73
2022-12-03T23:52:29.980Z,36.93
2022-12-03T23:55:02.254Z,43.00
2022-12-03T23:57:34.956Z,42.30
